KLOR/LOR METAR and TAF weather

Enter ICAO airport designator
Station Type Date Time Source
KLOR METAR 2019/12/08 23:58 UTC NOAA

KLOR 082358Z AUTO 00000KT 10SM OVC080 16/13 A3012 RMK AO2 SLP182 T01590129 10189 20159 55001


Station Type Date Time Source
KLOR Decoded METAR 2019/12/08 23:58 UTC NOAA

Fort Rucker, Lowe Army Heliport, AL, United States (KLOR) 31-21-32N 085-44-54W 93M
Dec 08, 2019 - 06:58 PM EST / 2019.12.08 2358 UTC
Wind: Calm:0
Visibility: 10 mile(s):0
Sky conditions: overcast
Temperature: 60.6 F (15.9 C)
Dew Point: 55.2 F (12.9 C)
Relative Humidity: 82%
Pressure (altimeter): 30.12 in. Hg (1019 hPa)
Pressure tendency: 0.00 inches (0.1 hPa) lower than three hours ago
ob: KLOR 082358Z AUTO 00000KT 10SM OVC080 16/13 A3012 RMK AO2 SLP182 T01590129 10189 20159 55001
cycle: 0

Station Type Date Time Source
KLOR TAF UTC NOAA

Error!

Example: see airport list